sensor_id;sensor_type;location;lat;lon;timestamp;temperature;humidity
9403;DHT22;4741;49.834;10.740;2023-04-28T00:02:04;7.50;99.90
9403;DHT22;4741;49.834;10.740;2023-04-28T00:04:31;7.40;99.90
9403;DHT22;4741;49.834;10.740;2023-04-28T00:06:58;7.60;99.90
9403;DHT22;4741;49.834;10.740;2023-04-28T00:09:24;7.60;99.90
9403;DHT22;4741;49.834;10.740;2023-04-28T00:11:51;7.70;99.90
9403;DHT22;4741;49.834;10.740;2023-04-28T00:19:12;7.60;99.90
9403;DHT22;4741;49.834;10.740;2023-04-28T00:21:38;7.40;99.90
9403;DHT22;4741;49.834;10.740;2023-04-28T00:24:05;7.50;99.90
9403;DHT22;4741;49.834;10.740;2023-04-28T00:26:32;7.60;99.90
9403;DHT22;4741;49.834;10.740;2023-04-28T00:28:59;7.60;99.90
9403;DHT22;4741;49.834;10.740;2023-04-28T00:31:25;7.30;99.90
9403;DHT22;4741;49.834;10.740;2023-04-28T00:33:52;7.60;99.90
9403;DHT22;4741;49.834;10.740;2023-04-28T00:36:19;7.60;99.90
9403;DHT22;4741;49.834;10.740;2023-04-28T00:38:45;7.60;99.90
9403;DHT22;4741;49.834;10.740;2023-04-28T00:41:12;7.60;99.90
9403;DHT22;4741;49.834;10.740;2023-04-28T00:43:46;7.50;99.90
9403;DHT22;4741;49.834;10.740;2023-04-28T00:46:18;7.50;99.90
9403;DHT22;4741;49.834;10.740;2023-04-28T00:48:45;7.60;99.90
9403;DHT22;4741;49.834;10.740;2023-04-28T00:51:12;7.60;99.90
9403;DHT22;4741;49.834;10.740;2023-04-28T00:53:39;7.60;99.90
9403;DHT22;4741;49.834;10.740;2023-04-28T00:56:06;7.60;99.90
9403;DHT22;4741;49.834;10.740;2023-04-28T00:58:33;7.60;99.90
9403;DHT22;4741;49.834;10.740;2023-04-28T01:01:03;7.50;99.90
9403;DHT22;4741;49.834;10.740;2023-04-28T01:03:33;7.50;99.90
9403;DHT22;4741;49.834;10.740;2023-04-28T01:06:01;7.50;99.90
9403;DHT22;4741;49.834;10.740;2023-04-28T01:08:31;7.40;99.90
9403;DHT22;4741;49.834;10.740;2023-04-28T01:10:58;7.60;99.90
9403;DHT22;4741;49.834;10.740;2023-04-28T01:13:24;7.40;99.90
9403;DHT22;4741;49.834;10.740;2023-04-28T01:15:51;7.30;99.90
9403;DHT22;4741;49.834;10.740;2023-04-28T01:18:18;7.30;99.90
9403;DHT22;4741;49.834;10.740;2023-04-28T01:20:45;7.40;99.90
9403;DHT22;4741;49.834;10.740;2023-04-28T01:23:12;7.50;99.90
9403;DHT22;4741;49.834;10.740;2023-04-28T01:28:06;7.40;99.90
9403;DHT22;4741;49.834;10.740;2023-04-28T01:35:28;7.00;99.90
9403;DHT22;4741;49.834;10.740;2023-04-28T01:37:54;7.20;99.90
9403;DHT22;4741;49.834;10.740;2023-04-28T01:42:48;7.20;99.90
9403;DHT22;4741;49.834;10.740;2023-04-28T02:14:44;7.50;99.90
9403;DHT22;4741;49.834;10.740;2023-04-28T02:17:11;7.50;99.90
9403;DHT22;4741;49.834;10.740;2023-04-28T02:19:38;7.40;99.90
9403;DHT22;4741;49.834;10.740;2023-04-28T02:22:04;7.40;99.90
9403;DHT22;4741;49.834;10.740;2023-04-28T02:24:35;7.20;99.90
9403;DHT22;4741;49.834;10.740;2023-04-28T02:27:05;7.30;99.90
9403;DHT22;4741;49.834;10.740;2023-04-28T02:29:31;7.10;99.90
9403;DHT22;4741;49.834;10.740;2023-04-28T02:31:58;7.40;99.90
9403;DHT22;4741;49.834;10.740;2023-04-28T02:34:25;7.40;99.90
9403;DHT22;4741;49.834;10.740;2023-04-28T02:36:52;7.40;99.90
9403;DHT22;4741;49.834;10.740;2023-04-28T02:39:18;7.40;99.90
9403;DHT22;4741;49.834;10.740;2023-04-28T02:41:47;7.40;99.90
9403;DHT22;4741;49.834;10.740;2023-04-28T02:44:13;7.30;99.90
9403;DHT22;4741;49.834;10.740;2023-04-28T02:46:41;7.30;99.90
9403;DHT22;4741;49.834;10.740;2023-04-28T02:49:07;7.40;99.90
9403;DHT22;4741;49.834;10.740;2023-04-28T02:51:34;7.30;99.90
9403;DHT22;4741;49.834;10.740;2023-04-28T02:54:01;7.10;99.90
9403;DHT22;4741;49.834;10.740;2023-04-28T02:56:27;7.00;99.90
9403;DHT22;4741;49.834;10.740;2023-04-28T02:58:55;7.00;99.90
9403;DHT22;4741;49.834;10.740;2023-04-28T03:01:22;7.30;99.90
9403;DHT22;4741;49.834;10.740;2023-04-28T03:03:49;7.40;99.90
9403;DHT22;4741;49.834;10.740;2023-04-28T03:06:16;7.30;99.90
9403;DHT22;4741;49.834;10.740;2023-04-28T03:08:42;7.30;99.90
9403;DHT22;4741;49.834;10.740;2023-04-28T03:11:09;6.80;99.90
9403;DHT22;4741;49.834;10.740;2023-04-28T03:13:36;7.00;99.90
9403;DHT22;4741;49.834;10.740;2023-04-28T03:20:57;7.60;99.90
9403;DHT22;4741;49.834;10.740;2023-04-28T03:23:23;7.40;99.90
9403;DHT22;4741;49.834;10.740;2023-04-28T03:25:50;7.60;99.90
9403;DHT22;4741;49.834;10.740;2023-04-28T03:28:16;7.50;99.90
9403;DHT22;4741;49.834;10.740;2023-04-28T03:30:43;7.50;99.90
9403;DHT22;4741;49.834;10.740;2023-04-28T03:33:10;7.60;99.90
9403;DHT22;4741;49.834;10.740;2023-04-28T03:38:03;7.60;99.90
9403;DHT22;4741;49.834;10.740;2023-04-28T03:42:57;7.70;99.90
9403;DHT22;4741;49.834;10.740;2023-04-28T03:47:51;7.80;99.90
9403;DHT22;4741;49.834;10.740;2023-04-28T03:50:18;7.60;99.90
9403;DHT22;4741;49.834;10.740;2023-04-28T03:52:45;7.90;99.90
9403;DHT22;4741;49.834;10.740;2023-04-28T03:55:11;7.80;99.90
9403;DHT22;4741;49.834;10.740;2023-04-28T04:02:33;8.00;99.90
9403;DHT22;4741;49.834;10.740;2023-04-28T04:05:00;8.00;99.90
9403;DHT22;4741;49.834;10.740;2023-04-28T04:09:54;8.10;99.90
9403;DHT22;4741;49.834;10.740;2023-04-28T04:17:15;8.20;99.90
9403;DHT22;4741;49.834;10.740;2023-04-28T04:22:09;8.20;99.90
9403;DHT22;4741;49.834;10.740;2023-04-28T04:24:36;8.00;99.90
9403;DHT22;4741;49.834;10.740;2023-04-28T04:27:02;8.00;99.90
9403;DHT22;4741;49.834;10.740;2023-04-28T04:29:29;8.10;99.90
9403;DHT22;4741;49.834;10.740;2023-04-28T04:31:55;7.90;99.90
9403;DHT22;4741;49.834;10.740;2023-04-28T04:34:22;7.60;99.90
9403;DHT22;4741;49.834;10.740;2023-04-28T04:36:49;7.80;99.90
9403;DHT22;4741;49.834;10.740;2023-04-28T04:39:16;7.90;99.90
9403;DHT22;4741;49.834;10.740;2023-04-28T04:41:42;7.90;99.90
9403;DHT22;4741;49.834;10.740;2023-04-28T04:44:09;7.90;99.90
9403;DHT22;4741;49.834;10.740;2023-04-28T04:49:04;8.30;99.90
9403;DHT22;4741;49.834;10.740;2023-04-28T04:51:30;8.20;99.90
9403;DHT22;4741;49.834;10.740;2023-04-28T04:53:57;8.20;99.90
9403;DHT22;4741;49.834;10.740;2023-04-28T05:01:18;8.30;99.90
9403;DHT22;4741;49.834;10.740;2023-04-28T05:03:44;8.10;99.90
9403;DHT22;4741;49.834;10.740;2023-04-28T05:06:11;8.20;99.90
9403;DHT22;4741;49.834;10.740;2023-04-28T05:08:38;8.00;99.90
9403;DHT22;4741;49.834;10.740;2023-04-28T05:11:04;7.90;99.90
9403;DHT22;4741;49.834;10.740;2023-04-28T05:13:31;7.80;99.90
9403;DHT22;4741;49.834;10.740;2023-04-28T05:15:58;7.80;99.90
9403;DHT22;4741;49.834;10.740;2023-04-28T05:18:24;7.90;99.90
9403;DHT22;4741;49.834;10.740;2023-04-28T05:20:51;8.10;99.90
9403;DHT22;4741;49.834;10.740;2023-04-28T05:40:28;9.50;99.90
9403;DHT22;4741;49.834;10.740;2023-04-28T05:45:22;9.60;99.90
9403;DHT22;4741;49.834;10.740;2023-04-28T05:47:48;9.60;99.90
9403;DHT22;4741;49.834;10.740;2023-04-28T06:02:42;10.00;99.90
9403;DHT22;4741;49.834;10.740;2023-04-28T06:07:36;9.90;99.90
9403;DHT22;4741;49.834;10.740;2023-04-28T06:12:31;10.00;99.90
9403;DHT22;4741;49.834;10.740;2023-04-28T06:14:57;9.80;99.90
9403;DHT22;4741;49.834;10.740;2023-04-28T06:17:24;9.80;99.90
9403;DHT22;4741;49.834;10.740;2023-04-28T06:19:51;10.00;99.90
9403;DHT22;4741;49.834;10.740;2023-04-28T06:24:46;10.00;99.90
9403;DHT22;4741;49.834;10.740;2023-04-28T06:27:13;9.90;99.90
9403;DHT22;4741;49.834;10.740;2023-04-28T06:29:40;10.00;99.90
9403;DHT22;4741;49.834;10.740;2023-04-28T07:57:59;10.20;99.90
9403;DHT22;4741;49.834;10.740;2023-04-28T08:00:27;10.30;99.90
9403;DHT22;4741;49.834;10.740;2023-04-28T08:05:22;10.10;99.90
9403;DHT22;4741;49.834;10.740;2023-04-28T08:07:49;10.00;99.90
9403;DHT22;4741;49.834;10.740;2023-04-28T08:10:15;9.70;99.90
9403;DHT22;4741;49.834;10.740;2023-04-28T08:12:42;10.50;99.90
9403;DHT22;4741;49.834;10.740;2023-04-28T08:15:10;9.80;99.90
9403;DHT22;4741;49.834;10.740;2023-04-28T08:17:37;9.70;99.90
9403;DHT22;4741;49.834;10.740;2023-04-28T08:20:04;10.10;99.90
9403;DHT22;4741;49.834;10.740;2023-04-28T08:22:32;10.10;99.90
9403;DHT22;4741;49.834;10.740;2023-04-28T08:24:58;10.00;99.90
9403;DHT22;4741;49.834;10.740;2023-04-28T08:29:52;10.30;99.90
9403;DHT22;4741;49.834;10.740;2023-04-28T08:32:19;10.30;99.90
9403;DHT22;4741;49.834;10.740;2023-04-28T09:38:41;10.80;99.90
9403;DHT22;4741;49.834;10.740;2023-04-28T09:41:09;10.70;99.90
9403;DHT22;4741;49.834;10.740;2023-04-28T09:43:35;10.60;99.90
9403;DHT22;4741;49.834;10.740;2023-04-28T09:46:03;10.10;99.90
9403;DHT22;4741;49.834;10.740;2023-04-28T09:50:58;10.40;99.90
9403;DHT22;4741;49.834;10.740;2023-04-28T09:53:26;10.20;99.90
9403;DHT22;4741;49.834;10.740;2023-04-28T09:55:54;10.30;99.90
9403;DHT22;4741;49.834;10.740;2023-04-28T09:58:21;10.30;99.90
9403;DHT22;4741;49.834;10.740;2023-04-28T10:00:52;10.00;99.90
9403;DHT22;4741;49.834;10.740;2023-04-28T10:03:23;10.60;99.90
9403;DHT22;4741;49.834;10.740;2023-04-28T10:05:53;10.50;99.90
9403;DHT22;4741;49.834;10.740;2023-04-28T10:08:21;10.40;99.90
9403;DHT22;4741;49.834;10.740;2023-04-28T10:10:49;10.20;99.90
9403;DHT22;4741;49.834;10.740;2023-04-28T10:13:18;10.40;99.90
9403;DHT22;4741;49.834;10.740;2023-04-28T10:15:45;10.60;99.90
9403;DHT22;4741;49.834;10.740;2023-04-28T10:18:15;10.50;99.90
9403;DHT22;4741;49.834;10.740;2023-04-28T15:20:54;17.30;99.90
9403;DHT22;4741;49.834;10.740;2023-04-28T15:40:37;16.80;99.90
9403;DHT22;4741;49.834;10.740;2023-04-28T15:43:04;16.70;99.90
9403;DHT22;4741;49.834;10.740;2023-04-28T16:05:14;15.30;99.90
9403;DHT22;4741;49.834;10.740;2023-04-28T16:07:41;15.20;99.90
9403;DHT22;4741;49.834;10.740;2023-04-28T16:10:08;15.10;99.90
9403;DHT22;4741;49.834;10.740;2023-04-28T16:12:35;15.80;99.90
9403;DHT22;4741;49.834;10.740;2023-04-28T16:15:02;15.20;99.90
9403;DHT22;4741;49.834;10.740;2023-04-28T16:17:29;15.40;99.90
9403;DHT22;4741;49.834;10.740;2023-04-28T16:19:56;15.30;99.90
9403;DHT22;4741;49.834;10.740;2023-04-28T16:22:23;15.50;99.90
9403;DHT22;4741;49.834;10.740;2023-04-28T16:24:50;15.40;99.90
9403;DHT22;4741;49.834;10.740;2023-04-28T16:27:19;15.20;99.90
9403;DHT22;4741;49.834;10.740;2023-04-28T16:29:45;15.70;99.90
9403;DHT22;4741;49.834;10.740;2023-04-28T16:32:12;17.40;99.90
9403;DHT22;4741;49.834;10.740;2023-04-28T16:34:39;16.00;99.90
9403;DHT22;4741;49.834;10.740;2023-04-28T16:37:06;19.00;99.90
9403;DHT22;4741;49.834;10.740;2023-04-28T16:39:33;19.20;99.90
9403;DHT22;4741;49.834;10.740;2023-04-28T16:42:00;18.20;99.90
9403;DHT22;4741;49.834;10.740;2023-04-28T16:44:27;17.50;99.90
9403;DHT22;4741;49.834;10.740;2023-04-28T16:46:53;17.10;99.90
9403;DHT22;4741;49.834;10.740;2023-04-28T16:49:20;16.80;99.90
9403;DHT22;4741;49.834;10.740;2023-04-28T16:51:56;16.50;99.90
9403;DHT22;4741;49.834;10.740;2023-04-28T16:54:24;16.30;99.90
9403;DHT22;4741;49.834;10.740;2023-04-28T16:56:50;16.10;99.90
9403;DHT22;4741;49.834;10.740;2023-04-28T16:59:17;15.90;99.90
9403;DHT22;4741;49.834;10.740;2023-04-28T17:01:44;15.90;99.90
9403;DHT22;4741;49.834;10.740;2023-04-28T17:04:11;15.60;99.90
9403;DHT22;4741;49.834;10.740;2023-04-28T17:06:38;15.40;99.90
9403;DHT22;4741;49.834;10.740;2023-04-28T17:14:03;15.10;99.90
9403;DHT22;4741;49.834;10.740;2023-04-28T17:16:30;14.90;99.90
9403;DHT22;4741;49.834;10.740;2023-04-28T17:18:58;14.80;99.90
9403;DHT22;4741;49.834;10.740;2023-04-28T17:21:25;15.00;99.90
9403;DHT22;4741;49.834;10.740;2023-04-28T17:23:55;15.00;99.90
9403;DHT22;4741;49.834;10.740;2023-04-28T17:26:23;14.80;99.90
9403;DHT22;4741;49.834;10.740;2023-04-28T17:28:50;14.90;99.90
9403;DHT22;4741;49.834;10.740;2023-04-28T17:31:16;15.10;99.90
9403;DHT22;4741;49.834;10.740;2023-04-28T17:33:43;14.90;99.90
9403;DHT22;4741;49.834;10.740;2023-04-28T18:17:51;14.10;99.90
9403;DHT22;4741;49.834;10.740;2023-04-28T18:30:09;14.10;99.90
9403;DHT22;4741;49.834;10.740;2023-04-28T18:49:46;13.00;99.90
9403;DHT22;4741;49.834;10.740;2023-04-28T18:52:13;12.80;99.90
9403;DHT22;4741;49.834;10.740;2023-04-28T18:54:40;12.70;99.90
9403;DHT22;4741;49.834;10.740;2023-04-28T18:57:06;12.70;99.90
9403;DHT22;4741;49.834;10.740;2023-04-28T18:59:33;12.70;99.90
9403;DHT22;4741;49.834;10.740;2023-04-28T19:02:00;12.50;99.90
9403;DHT22;4741;49.834;10.740;2023-04-28T19:04:27;12.40;99.90
9403;DHT22;4741;49.834;10.740;2023-04-28T19:06:55;12.40;99.90
9403;DHT22;4741;49.834;10.740;2023-04-28T19:09:21;12.40;99.90
9403;DHT22;4741;49.834;10.740;2023-04-28T19:16:43;12.20;99.90
9403;DHT22;4741;49.834;10.740;2023-04-28T19:24:04;12.10;99.90
9403;DHT22;4741;49.834;10.740;2023-04-28T19:26:30;12.00;99.90
9403;DHT22;4741;49.834;10.740;2023-04-28T19:28:57;11.80;99.90
9403;DHT22;4741;49.834;10.740;2023-04-28T19:38:45;11.40;99.90
9403;DHT22;4741;49.834;10.740;2023-04-28T19:51:00;11.20;99.90
